createdAt,value
2022-09-17T00:02:30.449Z,4.57
2022-09-17T00:07:35.303Z,5.50
2022-09-17T00:12:42.886Z,4.33
2022-09-17T00:17:47.735Z,3.50
2022-09-17T00:22:52.471Z,3.20
2022-09-17T00:27:59.926Z,3.23
2022-09-17T00:33:05.062Z,4.50
2022-09-17T00:38:10.091Z,8.20
2022-09-17T00:43:17.735Z,7.13
2022-09-17T00:48:22.699Z,5.07
2022-09-17T00:53:28.452Z,5.67
2022-09-17T00:58:41.313Z,3.63
2022-09-17T01:03:46.561Z,3.90
2022-09-17T01:09:04.672Z,4.73
2022-09-17T01:14:26.352Z,8.67
2022-09-17T01:19:55.240Z,5.17
2022-09-17T01:25:23.180Z,7.03
2022-09-17T01:30:43.697Z,5.73
2022-09-17T01:35:55.977Z,5.47
2022-09-17T01:41:09.843Z,5.97
2022-09-17T01:46:23.023Z,4.47
2022-09-17T01:51:32.163Z,3.37
2022-09-17T01:56:40.645Z,2.80
2022-09-17T02:01:53.710Z,4.80
2022-09-17T02:07:03.651Z,4.13
2022-09-17T02:12:12.797Z,3.60
2022-09-17T02:17:25.244Z,7.17
2022-09-17T02:22:36.722Z,3.83
2022-09-17T02:27:50.972Z,3.47
2022-09-17T02:32:59.198Z,6.90
2022-09-17T02:38:06.793Z,6.23
2022-09-17T02:43:19.280Z,4.23
2022-09-17T02:48:40.913Z,5.07
2022-09-17T02:53:54.302Z,3.90
2022-09-17T02:59:05.827Z,3.67
2022-09-17T03:04:16.392Z,4.33
2022-09-17T03:09:21.180Z,5.50
2022-09-17T03:14:26.105Z,3.17
2022-09-17T03:19:33.568Z,4.53
2022-09-17T03:24:38.349Z,6.27
2022-09-17T03:29:43.225Z,5.90
2022-09-17T03:34:50.699Z,4.63
2022-09-17T03:39:55.582Z,6.03
2022-09-17T03:45:00.620Z,4.03
2022-09-17T03:50:09.631Z,7.03
2022-09-17T03:55:17.964Z,6.83
2022-09-17T04:00:22.830Z,5.30
2022-09-17T04:05:30.302Z,1.90
2022-09-17T04:10:35.287Z,5.27
2022-09-17T04:15:40.229Z,3.77
2022-09-17T04:20:47.652Z,3.40
2022-09-17T04:25:54.504Z,2.13
2022-09-17T04:30:59.419Z,3.77
2022-09-17T04:36:08.210Z,2.63
2022-09-17T04:41:13.093Z,3.90
2022-09-17T04:46:18.461Z,1.73
2022-09-17T04:51:25.901Z,9.87
2022-09-17T04:56:30.738Z,4.90
2022-09-17T05:01:35.821Z,3.63
2022-09-17T05:06:43.357Z,3.67
2022-09-17T05:11:48.298Z,2.27
2022-09-17T05:16:53.080Z,5.33
2022-09-17T05:22:00.421Z,6.90
2022-09-17T05:27:05.278Z,2.20
2022-09-17T05:32:10.192Z,4.03
2022-09-17T05:37:17.675Z,6.10
2022-09-17T05:42:22.501Z,5.60
2022-09-17T05:47:31.906Z,3.70
2022-09-17T05:52:39.279Z,6.10
2022-09-17T05:57:44.140Z,5.27
2022-09-17T06:02:49.468Z,5.53
2022-09-17T06:07:56.968Z,4.00
2022-09-17T06:13:03.023Z,4.17
2022-09-17T06:18:08.024Z,3.10
2022-09-17T06:23:16.135Z,2.73
2022-09-17T06:28:22.304Z,2.63
2022-09-17T06:33:27.982Z,3.17
2022-09-17T06:38:38.062Z,3.87
2022-09-17T06:43:43.158Z,2.80
2022-09-17T06:48:48.319Z,5.33
2022-09-17T06:53:55.756Z,4.00
2022-09-17T06:59:00.621Z,4.30
2022-09-17T07:04:06.235Z,3.67
2022-09-17T07:09:14.126Z,2.17
2022-09-17T07:14:24.018Z,1.90
2022-09-17T07:19:28.776Z,2.93
2022-09-17T07:24:37.966Z,1.83
2022-09-17T07:29:42.877Z,1.83
2022-09-17T07:34:50.588Z,2.80
2022-09-17T07:39:57.993Z,2.23
2022-09-17T07:45:02.949Z,5.47
2022-09-17T07:50:08.945Z,4.27
2022-09-17T07:55:16.888Z,7.83
2022-09-17T08:00:21.904Z,8.80
2022-09-17T08:05:28.240Z,10.80
2022-09-17T08:10:36.169Z,6.83
2022-09-17T08:15:43.218Z,11.33
2022-09-17T08:20:48.049Z,9.73
2022-09-17T08:25:58.071Z,16.53
2022-09-17T08:31:04.671Z,16.00
2022-09-17T08:36:11.729Z,8.67
2022-09-17T08:41:30.019Z,10.00
2022-09-17T08:46:36.524Z,9.20
2022-09-17T08:51:54.699Z,11.67
2022-09-17T08:57:15.416Z,15.13
2022-09-17T09:02:31.987Z,16.13
2022-09-17T09:07:42.376Z,11.67
2022-09-17T09:12:51.422Z,13.47
2022-09-17T09:17:57.540Z,9.17
2022-09-17T09:23:10.649Z,9.70
2022-09-17T09:28:36.001Z,17.33
2022-09-17T09:33:47.694Z,11.60
2022-09-17T09:38:59.194Z,11.47
2022-09-17T09:44:12.210Z,8.33
2022-09-17T09:49:29.550Z,9.53
2022-09-17T09:54:55.084Z,8.30
2022-09-17T10:00:35.133Z,6.27
2022-09-17T10:05:42.600Z,9.70
2022-09-17T10:10:59.674Z,8.73
2022-09-17T10:16:20.602Z,7.57
2022-09-17T10:21:33.096Z,5.73
2022-09-17T10:26:39.714Z,6.07
2022-09-17T10:31:55.615Z,4.30
2022-09-17T10:37:01.020Z,3.63
2022-09-17T10:42:07.906Z,3.20
2022-09-17T10:47:23.872Z,2.43
2022-09-17T10:52:32.145Z,3.03
2022-09-17T10:58:05.017Z,5.07
2022-09-17T11:03:46.768Z,6.23
2022-09-17T11:09:04.982Z,3.83
2022-09-17T11:14:23.305Z,5.30
2022-09-17T11:19:47.339Z,6.00
2022-09-17T11:25:08.638Z,3.20
2022-09-17T11:30:22.347Z,6.40
2022-09-17T11:35:33.064Z,4.80
2022-09-17T11:40:43.190Z,3.93
2022-09-17T11:45:59.995Z,19.07
2022-09-17T11:51:23.413Z,12.73
2022-09-17T11:56:32.448Z,7.13
2022-09-17T12:01:44.394Z,5.70
2022-09-17T12:07:00.545Z,7.43
2022-09-17T12:12:21.702Z,8.23
2022-09-17T12:17:41.559Z,7.93
2022-09-17T12:22:51.025Z,8.73
2022-09-17T12:28:02.672Z,6.57
2022-09-17T12:33:26.913Z,8.93
2022-09-17T12:39:09.132Z,9.03
2022-09-17T12:44:30.597Z,4.87
2022-09-17T12:49:48.747Z,7.97
2022-09-17T12:55:25.090Z,5.13
2022-09-17T13:00:30.625Z,3.93
2022-09-17T13:06:02.835Z,2.87
2022-09-17T13:11:38.744Z,6.10
2022-09-17T13:16:48.844Z,4.20
2022-09-17T13:21:56.939Z,7.03
2022-09-17T13:27:07.724Z,5.43
2022-09-17T13:32:12.820Z,7.37
2022-09-17T13:37:22.764Z,4.40
2022-09-17T13:42:33.834Z,5.90
2022-09-17T13:47:41.788Z,6.03
2022-09-17T13:52:49.012Z,7.43
2022-09-17T13:57:56.455Z,10.40
2022-09-17T14:03:42.032Z,11.43
2022-09-17T14:08:54.855Z,10.40
2022-09-17T14:14:42.898Z,7.10
2022-09-17T14:19:55.831Z,4.87
2022-09-17T14:25:01.732Z,5.53
2022-09-17T14:30:16.805Z,6.23
2022-09-17T14:35:31.574Z,7.87
2022-09-17T14:40:37.347Z,6.57
2022-09-17T14:45:45.959Z,7.30
2022-09-17T14:50:50.804Z,8.10
2022-09-17T14:55:55.718Z,6.23
2022-09-17T15:01:03.439Z,4.27
2022-09-17T15:06:08.404Z,7.00
2022-09-17T15:11:17.791Z,2.93
2022-09-17T15:16:28.274Z,7.03
2022-09-17T15:21:37.400Z,7.87
2022-09-17T15:26:46.396Z,7.00
2022-09-17T15:31:53.921Z,6.73
2022-09-17T15:37:08.845Z,5.30
2022-09-17T15:42:26.946Z,10.77
2022-09-17T15:47:55.072Z,11.77
2022-09-17T15:53:24.263Z,6.13
2022-09-17T15:58:33.176Z,7.20
2022-09-17T16:04:10.196Z,6.03
2022-09-17T16:09:39.631Z,7.30
2022-09-17T16:14:53.246Z,7.50
2022-09-17T16:20:05.927Z,6.50
2022-09-17T16:25:11.826Z,8.13
2022-09-17T16:30:19.576Z,4.80
2022-09-17T16:35:28.858Z,5.73
2022-09-17T16:40:33.967Z,5.43
2022-09-17T16:45:39.056Z,9.27
2022-09-17T16:50:47.293Z,6.10
2022-09-17T16:55:52.129Z,6.03
2022-09-17T17:00:59.672Z,8.17
2022-09-17T17:06:08.253Z,2.07
2022-09-17T17:11:13.082Z,8.37
2022-09-17T17:16:20.685Z,5.07
2022-09-17T17:21:28.117Z,7.83
2022-09-17T17:26:33.167Z,5.67
2022-09-17T17:31:38.113Z,13.17
2022-09-17T17:36:47.885Z,7.27
2022-09-17T17:41:54.414Z,4.73
2022-09-17T17:46:59.290Z,6.23
2022-09-17T17:52:06.932Z,7.43
2022-09-17T17:57:11.903Z,6.90
2022-09-17T18:02:19.757Z,6.10
2022-09-17T18:07:27.580Z,6.63
2022-09-17T18:12:32.437Z,7.83
2022-09-17T18:17:38.571Z,3.77
2022-09-17T18:22:46.287Z,7.63
2022-09-17T18:27:51.064Z,5.87
2022-09-17T18:32:55.890Z,8.73
2022-09-17T18:38:03.369Z,7.97
2022-09-17T18:43:08.301Z,6.50
2022-09-17T18:48:13.262Z,4.60
2022-09-17T18:53:20.851Z,4.67
2022-09-17T18:58:25.863Z,7.10
2022-09-17T19:03:33.965Z,5.00
2022-09-17T19:08:41.947Z,2.60
2022-09-17T19:13:49.205Z,2.50
2022-09-17T19:18:54.503Z,7.67
2022-09-17T19:24:02.851Z,4.17
2022-09-17T19:29:09.156Z,4.53
2022-09-17T19:34:14.073Z,6.57
2022-09-17T19:39:21.515Z,2.63
2022-09-17T19:44:26.736Z,4.33
2022-09-17T19:49:31.549Z,1.93
2022-09-17T19:54:38.949Z,3.17
2022-09-17T19:59:43.888Z,3.00
2022-09-17T20:04:49.054Z,3.00
2022-09-17T20:10:00.933Z,3.93
2022-09-17T20:15:05.817Z,4.23
2022-09-17T20:20:12.266Z,1.50
2022-09-17T20:25:19.685Z,3.47
2022-09-17T20:30:24.521Z,4.93
2022-09-17T20:35:29.444Z,1.33
2022-09-17T20:40:36.977Z,3.87
2022-09-17T20:45:41.761Z,4.63
2022-09-17T20:50:46.580Z,1.97
2022-09-17T20:55:59.814Z,3.03
2022-09-17T21:01:09.515Z,3.73
2022-09-17T21:06:19.200Z,2.60
2022-09-17T21:11:27.589Z,1.93
2022-09-17T21:16:32.920Z,2.67
2022-09-17T21:21:38.237Z,5.53
2022-09-17T21:26:45.934Z,3.27
2022-09-17T21:31:51.702Z,2.50
2022-09-17T21:36:56.878Z,2.73
2022-09-17T21:42:04.350Z,4.63
2022-09-17T21:47:12.436Z,3.20
2022-09-17T21:52:17.636Z,2.63
2022-09-17T21:57:25.042Z,1.20
2022-09-17T22:02:30.546Z,0.90
2022-09-17T22:07:35.420Z,1.50
2022-09-17T22:12:43.003Z,4.27
2022-09-17T22:17:47.804Z,4.23
2022-09-17T22:22:52.758Z,1.30
2022-09-17T22:28:19.926Z,4.53
2022-09-17T22:33:26.872Z,1.40
2022-09-17T22:38:31.692Z,1.17
2022-09-17T22:43:39.078Z,1.53
2022-09-17T22:48:43.896Z,1.20
2022-09-17T22:53:48.693Z,1.30
2022-09-17T22:58:56.698Z,1.50
2022-09-17T23:04:02.844Z,3.43
2022-09-17T23:09:08.639Z,1.63
2022-09-17T23:14:17.029Z,1.30
2022-09-17T23:19:22.535Z,4.60
2022-09-17T23:24:28.997Z,3.70
2022-09-17T23:29:36.353Z,1.10
2022-09-17T23:34:41.205Z,2.00
2022-09-17T23:39:45.996Z,3.30
2022-09-17T23:44:53.417Z,1.50
2022-09-17T23:49:58.387Z,4.30
2022-09-17T23:55:03.808Z,3.60
